createdAt,value
2018-06-14T00:00:07.661Z,9.9
2018-06-14T00:05:01.218Z,10.1
2018-06-14T00:10:01.290Z,10.0
2018-06-14T00:15:01.182Z,9.7
2018-06-14T00:20:01.351Z,9.5
2018-06-14T00:25:01.184Z,9.3
2018-06-14T00:30:01.320Z,9.0
2018-06-14T00:35:01.188Z,9.6
2018-06-14T00:40:01.295Z,9.8
2018-06-14T00:45:01.171Z,10.1
2018-06-14T00:50:01.541Z,10.4
2018-06-14T00:55:01.169Z,10.9
2018-06-14T01:00:01.719Z,10.3
2018-06-14T01:05:01.270Z,10.6
2018-06-14T01:10:06.469Z,10.2
2018-06-14T01:15:02.246Z,10.4
2018-06-14T01:20:02.076Z,10.2
2018-06-14T01:25:01.247Z,10.4
2018-06-14T01:30:01.241Z,10.5
2018-06-14T01:35:01.219Z,10.4
2018-06-14T01:40:01.353Z,10.6
2018-06-14T01:45:01.277Z,10.8
2018-06-14T01:50:01.363Z,10.4
2018-06-14T01:55:01.218Z,10.6
2018-06-14T02:00:01.326Z,10.8
2018-06-14T02:05:01.255Z,10.4
2018-06-14T02:10:01.257Z,10.0
2018-06-14T02:15:01.226Z,10.1
2018-06-14T02:20:01.358Z,9.7
2018-06-14T02:25:01.258Z,9.6
2018-06-14T02:30:01.721Z,9.5
2018-06-14T02:35:01.308Z,9.2
2018-06-14T02:40:01.372Z,9.4
2018-06-14T02:45:01.240Z,9.9
2018-06-14T02:50:06.274Z,10.5
2018-06-14T03:00:02.587Z,11.4
2018-06-14T03:05:01.246Z,11.6
2018-06-14T03:10:01.377Z,11.8
2018-06-14T03:15:06.306Z,11.8
2018-06-14T03:20:01.924Z,12.0
2018-06-14T03:25:01.278Z,12.8
2018-06-14T03:30:02.439Z,12.9
2018-06-14T03:35:01.270Z,12.8
2018-06-14T03:40:02.343Z,12.6
2018-06-14T03:45:01.270Z,12.7
2018-06-14T03:50:01.361Z,12.2
2018-06-14T03:55:01.264Z,12.3
2018-06-14T04:00:01.456Z,12.6
2018-06-14T04:10:02.419Z,14.0
2018-06-14T04:15:01.304Z,14.0
2018-06-14T04:20:01.752Z,13.9
2018-06-14T04:25:01.271Z,13.8
2018-06-14T04:30:01.249Z,13.5
2018-06-14T04:35:01.194Z,11.7
2018-06-14T04:40:01.372Z,12.0
2018-06-14T04:45:01.238Z,12.2
2018-06-14T04:50:01.297Z,12.0
2018-06-14T04:55:01.242Z,12.8
2018-06-14T05:00:01.301Z,13.2
2018-06-14T05:10:02.005Z,13.4
2018-06-14T05:15:01.253Z,12.8
2018-06-14T05:20:01.292Z,12.0
2018-06-14T05:30:01.363Z,12.1
2018-06-14T05:35:01.345Z,11.8
2018-06-14T05:40:01.365Z,12.0
2018-06-14T05:45:01.242Z,12.5
2018-06-14T05:50:01.306Z,12.4
2018-06-14T05:55:01.231Z,12.0
2018-06-14T06:00:02.533Z,11.1
2018-06-14T06:05:01.233Z,12.0
2018-06-14T06:10:01.235Z,12.1
2018-06-14T06:15:01.265Z,12.4
2018-06-14T06:20:01.822Z,13.2
2018-06-14T06:25:01.272Z,14.1
2018-06-14T06:30:01.420Z,14.0
2018-06-14T06:35:01.421Z,14.1
2018-06-14T06:40:01.360Z,13.4
2018-06-14T06:45:01.262Z,12.9
2018-06-14T06:50:01.370Z,13.2
2018-06-14T06:55:01.269Z,13.0
2018-06-14T07:00:01.399Z,13.2
2018-06-14T07:05:01.266Z,14.3
2018-06-14T07:10:01.725Z,15.2
2018-06-14T07:15:01.245Z,15.0
2018-06-14T07:20:01.382Z,16.1
2018-06-14T07:25:01.253Z,16.9
2018-06-14T07:30:01.360Z,17.2
2018-06-14T07:35:01.235Z,17.5
2018-06-14T07:40:01.310Z,17.7
2018-06-14T07:45:01.241Z,17.6
2018-06-14T07:50:01.386Z,16.8
2018-06-14T07:55:01.314Z,16.3
2018-06-14T08:00:01.945Z,15.7
2018-06-14T08:05:01.330Z,16.0
2018-06-14T08:10:02.418Z,15.5
2018-06-14T08:15:01.397Z,16.3
2018-06-14T08:20:01.325Z,17.4
2018-06-14T08:25:01.233Z,17.8
2018-06-14T08:30:01.297Z,18.0
2018-06-14T08:35:01.276Z,18.8
2018-06-14T08:40:01.472Z,17.8
2018-06-14T08:45:01.343Z,16.4
2018-06-14T08:50:01.329Z,16.2
2018-06-14T08:55:01.330Z,16.4
2018-06-14T09:00:02.554Z,16.1
2018-06-14T09:05:01.268Z,17.1
2018-06-14T09:10:01.474Z,18.2
2018-06-14T09:15:01.362Z,18.3
2018-06-14T09:20:06.380Z,18.7
2018-06-14T09:25:01.320Z,18.9
2018-06-14T09:30:01.871Z,19.1
2018-06-14T09:35:01.231Z,20.6
2018-06-14T09:40:01.435Z,21.5
2018-06-14T09:45:01.321Z,21.2
2018-06-14T09:50:01.428Z,20.6
2018-06-14T09:55:01.238Z,19.7
2018-06-14T10:00:01.474Z,18.0
2018-06-14T10:05:06.247Z,17.2
2018-06-14T10:10:01.333Z,16.8
2018-06-14T10:16:01.257Z,17.2
2018-06-14T10:21:01.484Z,17.3
2018-06-14T10:26:01.269Z,16.3
2018-06-14T10:31:01.392Z,15.7
2018-06-14T10:36:01.268Z,15.4
2018-06-14T10:41:01.348Z,15.3
2018-06-14T10:46:01.543Z,14.6
2018-06-14T10:51:01.335Z,15.1
2018-06-14T10:56:01.279Z,15.2
2018-06-14T11:01:01.458Z,16.4
2018-06-14T11:06:01.262Z,15.8
2018-06-14T11:11:01.297Z,16.2
2018-06-14T11:16:01.266Z,16.0
2018-06-14T11:21:01.343Z,15.7
2018-06-14T11:26:01.241Z,14.8
2018-06-14T11:31:06.306Z,15.2
2018-06-14T11:36:01.210Z,14.8
2018-06-14T11:41:01.211Z,15.2
2018-06-14T11:46:01.232Z,15.1
2018-06-14T11:51:01.292Z,14.9
2018-06-14T11:56:01.231Z,14.4
2018-06-14T12:01:01.300Z,15.4
2018-06-14T12:06:01.259Z,15.9
2018-06-14T12:11:01.399Z,16.6
2018-06-14T12:16:01.239Z,17.0
2018-06-14T12:21:01.337Z,16.8
2018-06-14T12:27:01.224Z,16.4
2018-06-14T12:32:01.292Z,16.0
2018-06-14T12:37:01.237Z,16.2
2018-06-14T12:42:01.747Z,16.0
2018-06-14T12:52:02.274Z,15.6
2018-06-14T12:57:01.305Z,15.2
2018-06-14T13:02:01.286Z,14.0
2018-06-14T13:07:01.235Z,14.6
2018-06-14T13:12:01.328Z,15.2
2018-06-14T13:17:01.291Z,15.4
2018-06-14T13:22:01.400Z,15.6
2018-06-14T13:27:02.333Z,16.2
2018-06-14T13:32:01.423Z,15.4
2018-06-14T13:37:01.235Z,15.6
2018-06-14T13:42:01.736Z,15.7
2018-06-14T13:47:01.223Z,15.8
2018-06-14T13:52:01.313Z,15.9
2018-06-14T13:57:01.266Z,16.0
2018-06-14T14:02:02.160Z,15.3
2018-06-14T14:07:01.270Z,15.2
2018-06-14T14:23:01.798Z,14.7
2018-06-14T14:28:01.293Z,14.6
2018-06-14T14:33:01.601Z,15.4
2018-06-14T14:38:01.336Z,15.8
2018-06-14T14:48:01.306Z,16.6
2018-06-14T14:53:01.314Z,17.2
2018-06-14T14:58:01.421Z,16.6
2018-06-14T15:03:01.258Z,17.1
2018-06-14T15:08:01.397Z,19.0
2018-06-14T15:13:01.260Z,19.9
2018-06-14T15:18:01.751Z,20.1
2018-06-14T15:23:01.271Z,20.7
2018-06-14T15:28:01.301Z,20.6
2018-06-14T15:33:01.216Z,19.8
2018-06-14T15:38:01.374Z,20.1
2018-06-14T15:43:01.210Z,21.8
2018-06-14T15:48:01.321Z,23.8
2018-06-14T15:53:01.229Z,25.1
2018-06-14T15:58:01.294Z,27.2
2018-06-14T16:03:01.235Z,29.9
2018-06-14T16:08:01.372Z,31.2
2018-06-14T16:13:01.232Z,33.5
2018-06-14T16:18:01.371Z,35.8
2018-06-14T16:23:01.244Z,37.6
2018-06-14T16:28:01.295Z,38.4
2018-06-14T16:33:01.235Z,40.4
2018-06-14T16:38:01.294Z,40.5
2018-06-14T16:43:01.215Z,41.5
2018-06-14T16:48:01.344Z,42.2
2018-06-14T16:53:01.562Z,42.4
2018-06-14T16:58:01.360Z,42.3
2018-06-14T17:03:01.297Z,42.8
2018-06-14T17:08:01.309Z,43.3
2018-06-14T17:13:01.272Z,43.0
2018-06-14T17:18:01.307Z,42.4
2018-06-14T17:23:01.270Z,43.2
2018-06-14T17:28:01.366Z,42.5
2018-06-14T17:33:01.235Z,41.8
2018-06-14T17:43:01.380Z,42.2
2018-06-14T17:48:01.308Z,41.9
2018-06-14T17:53:01.259Z,41.5
2018-06-14T17:58:01.368Z,41.3
2018-06-14T18:03:01.256Z,40.4
2018-06-14T18:08:01.302Z,40.6
2018-06-14T18:13:01.240Z,39.2
2018-06-14T18:18:01.305Z,40.2
2018-06-14T18:23:01.333Z,40.4
2018-06-14T18:28:01.240Z,40.2
2018-06-14T18:33:01.241Z,39.9
2018-06-14T18:38:01.380Z,39.8
2018-06-14T18:43:01.230Z,38.3
2018-06-14T18:48:01.293Z,38.0
2018-06-14T18:53:01.230Z,38.5
2018-06-14T18:58:06.305Z,40.1
2018-06-14T19:03:01.238Z,40.5
2018-06-14T19:08:01.236Z,41.5
2018-06-14T19:13:02.269Z,41.2
2018-06-14T19:18:01.391Z,41.4
2018-06-14T19:23:01.266Z,40.5
2018-06-14T19:28:01.315Z,41.1
2018-06-14T19:33:01.196Z,43.2
2018-06-14T19:38:01.294Z,45.0
2018-06-14T19:43:01.560Z,46.1
2018-06-14T19:48:01.241Z,46.5
2018-06-14T19:53:01.236Z,47.7
2018-06-14T19:58:01.303Z,47.8
2018-06-14T20:03:01.749Z,47.1
2018-06-14T20:08:01.303Z,45.8
2018-06-14T20:13:01.509Z,44.6
2018-06-14T20:18:01.297Z,42.7
2018-06-14T20:23:01.261Z,39.4
2018-06-14T20:28:01.433Z,36.9
2018-06-14T20:33:01.236Z,36.0
2018-06-14T20:38:02.332Z,33.2
2018-06-14T20:43:01.242Z,30.4
2018-06-14T20:48:02.522Z,28.8
2018-06-14T20:53:01.515Z,27.7
2018-06-14T20:58:03.541Z,26.0
2018-06-14T21:03:01.197Z,25.4
2018-06-14T21:08:01.293Z,24.9
2018-06-14T21:13:01.277Z,25.2
2018-06-14T21:23:01.364Z,23.7
2018-06-14T21:28:01.243Z,24.2
2018-06-14T21:33:01.243Z,24.3
2018-06-14T21:38:01.354Z,23.7
2018-06-14T21:43:01.238Z,23.0
2018-06-14T21:48:01.306Z,23.1
2018-06-14T21:53:01.238Z,22.2
2018-06-14T21:58:01.298Z,22.1
2018-06-14T22:03:01.240Z,21.9
2018-06-14T22:08:01.365Z,21.5
2018-06-14T22:13:01.249Z,21.8
2018-06-14T22:18:01.307Z,22.0
2018-06-14T22:23:01.279Z,22.1
2018-06-14T22:28:01.389Z,22.6
2018-06-14T22:50:00.327Z,24.6
2018-06-14T22:55:00.373Z,23.4
2018-06-14T23:00:00.439Z,23.1
2018-06-14T23:05:00.390Z,23.2
2018-06-14T23:30:00.852Z,23.0
2018-06-14T23:35:00.686Z,23.5
2018-06-14T23:40:00.879Z,22.9
2018-06-14T23:45:00.688Z,22.7
2018-06-14T23:50:00.777Z,22.6
2018-06-14T23:55:00.703Z,24.0
